sensor_id;sensor_type;location;lat;lon;timestamp;pressure;altitude;pressure_sealevel;temperature;humidity
61506;BME280;47366;51.916;4.574;2022-07-22T00:02:08;102317.00;;;17.58;70.20
61506;BME280;47366;51.916;4.574;2022-07-22T00:04:33;102309.09;;;17.54;70.25
61506;BME280;47366;51.916;4.574;2022-07-22T00:06:59;102310.00;;;17.54;70.63
61506;BME280;47366;51.916;4.574;2022-07-22T00:09:24;102312.63;;;17.56;70.62
61506;BME280;47366;51.916;4.574;2022-07-22T00:11:50;102310.00;;;17.54;70.61
61506;BME280;47366;51.916;4.574;2022-07-22T00:14:19;102298.34;;;17.51;70.54
61506;BME280;47366;51.916;4.574;2022-07-22T00:16:44;102297.03;;;17.56;70.52
61506;BME280;47366;51.916;4.574;2022-07-22T00:19:10;102295.63;;;17.51;70.60
61506;BME280;47366;51.916;4.574;2022-07-22T00:21:35;102292.66;;;17.54;70.15
61506;BME280;47366;51.916;4.574;2022-07-22T00:24:01;102291.56;;;17.56;70.53
61506;BME280;47366;51.916;4.574;2022-07-22T00:26:26;102288.94;;;17.55;70.28
61506;BME280;47366;51.916;4.574;2022-07-22T00:28:51;102281.69;;;17.54;70.13
61506;BME280;47366;51.916;4.574;2022-07-22T00:31:17;102293.44;;;17.56;70.46
61506;BME280;47366;51.916;4.574;2022-07-22T00:33:42;102293.56;;;17.54;70.35
61506;BME280;47366;51.916;4.574;2022-07-22T00:36:08;102290.91;;;17.53;70.64
61506;BME280;47366;51.916;4.574;2022-07-22T00:38:33;102291.13;;;17.50;70.05
61506;BME280;47366;51.916;4.574;2022-07-22T00:40:59;102277.31;;;17.51;70.15
61506;BME280;47366;51.916;4.574;2022-07-22T00:43:24;102269.41;;;17.47;70.53
61506;BME280;47366;51.916;4.574;2022-07-22T00:45:50;102281.13;;;17.49;70.46
61506;BME280;47366;51.916;4.574;2022-07-22T00:48:15;102287.59;;;17.48;70.29
61506;BME280;47366;51.916;4.574;2022-07-22T00:50:40;102266.31;;;17.38;70.52
61506;BME280;47366;51.916;4.574;2022-07-22T00:53:06;102281.66;;;17.41;70.68
61506;BME280;47366;51.916;4.574;2022-07-22T00:55:33;102272.25;;;17.45;70.34
61506;BME280;47366;51.916;4.574;2022-07-22T00:57:59;102280.56;;;17.44;70.76
61506;BME280;47366;51.916;4.574;2022-07-22T01:00:25;102262.69;;;17.38;70.96
61506;BME280;47366;51.916;4.574;2022-07-22T01:02:50;102277.94;;;17.42;70.49
61506;BME280;47366;51.916;4.574;2022-07-22T01:05:16;102273.53;;;17.39;70.63
61506;BME280;47366;51.916;4.574;2022-07-22T01:07:43;102269.16;;;17.37;70.55
61506;BME280;47366;51.916;4.574;2022-07-22T01:10:08;102284.63;;;17.38;71.08
61506;BME280;47366;51.916;4.574;2022-07-22T01:12:34;102269.44;;;17.32;70.87
61506;BME280;47366;51.916;4.574;2022-07-22T01:14:59;102273.75;;;17.36;70.82
61506;BME280;47366;51.916;4.574;2022-07-22T01:17:24;102262.22;;;17.31;70.98
61506;BME280;47366;51.916;4.574;2022-07-22T01:19:50;102274.44;;;17.40;70.94
61506;BME280;47366;51.916;4.574;2022-07-22T01:22:15;102264.53;;;17.37;71.14
61506;BME280;47366;51.916;4.574;2022-07-22T01:24:41;102269.84;;;17.40;71.17
61506;BME280;47366;51.916;4.574;2022-07-22T01:27:06;102261.06;;;17.35;71.04
61506;BME280;47366;51.916;4.574;2022-07-22T01:29:32;102275.41;;;17.39;71.04
61506;BME280;47366;51.916;4.574;2022-07-22T01:31:57;102280.00;;;17.38;70.88
61506;BME280;47366;51.916;4.574;2022-07-22T01:34:23;102272.31;;;17.31;71.08
61506;BME280;47366;51.916;4.574;2022-07-22T01:36:48;102259.91;;;17.25;71.62
61506;BME280;47366;51.916;4.574;2022-07-22T01:39:13;102270.44;;;17.31;71.00
61506;BME280;47366;51.916;4.574;2022-07-22T01:41:39;102267.16;;;17.26;71.42
61506;BME280;47366;51.916;4.574;2022-07-22T01:44:05;102273.28;;;17.30;71.81
61506;BME280;47366;51.916;4.574;2022-07-22T01:46:30;102271.84;;;17.24;71.60
61506;BME280;47366;51.916;4.574;2022-07-22T01:48:56;102266.16;;;17.27;71.23
61506;BME280;47366;51.916;4.574;2022-07-22T01:51:22;102258.81;;;17.28;71.21
61506;BME280;47366;51.916;4.574;2022-07-22T01:53:47;102262.44;;;17.28;71.20
61506;BME280;47366;51.916;4.574;2022-07-22T01:56:13;102266.63;;;17.34;71.07
61506;BME280;47366;51.916;4.574;2022-07-22T01:58:38;102261.94;;;17.36;70.89
61506;BME280;47366;51.916;4.574;2022-07-22T02:01:03;102260.47;;;17.30;71.13
61506;BME280;47366;51.916;4.574;2022-07-22T02:03:29;102263.97;;;17.32;71.62
61506;BME280;47366;51.916;4.574;2022-07-22T02:05:54;102251.13;;;17.20;71.26
61506;BME280;47366;51.916;4.574;2022-07-22T02:08:20;102250.03;;;17.23;71.72
61506;BME280;47366;51.916;4.574;2022-07-22T02:10:46;102257.94;;;17.27;71.38
61506;BME280;47366;51.916;4.574;2022-07-22T02:13:11;102256.84;;;17.30;71.53
61506;BME280;47366;51.916;4.574;2022-07-22T02:15:36;102250.72;;;17.26;71.35
61506;BME280;47366;51.916;4.574;2022-07-22T02:18:17;102255.66;;;17.34;71.50
61506;BME280;47366;51.916;4.574;2022-07-22T02:20:43;102238.09;;;17.24;71.04
61506;BME280;47366;51.916;4.574;2022-07-22T02:23:09;102252.06;;;17.33;71.33
61506;BME280;47366;51.916;4.574;2022-07-22T02:25:36;102251.28;;;17.31;71.26
61506;BME280;47366;51.916;4.574;2022-07-22T02:28:02;102245.91;;;17.30;71.63
61506;BME280;47366;51.916;4.574;2022-07-22T02:30:28;102244.25;;;17.27;71.22
61506;BME280;47366;51.916;4.574;2022-07-22T02:32:54;102250.28;;;17.32;71.22
61506;BME280;47366;51.916;4.574;2022-07-22T02:35:19;102234.94;;;17.30;70.92
61506;BME280;47366;51.916;4.574;2022-07-22T02:37:44;102248.09;;;17.37;70.70
61506;BME280;47366;51.916;4.574;2022-07-22T02:40:10;102237.50;;;17.33;70.63
61506;BME280;47366;51.916;4.574;2022-07-22T02:42:35;102248.22;;;17.36;71.07
61506;BME280;47366;51.916;4.574;2022-07-22T02:45:01;102241.19;;;17.32;70.75
61506;BME280;47366;51.916;4.574;2022-07-22T02:47:27;102241.75;;;17.37;70.59
61506;BME280;47366;51.916;4.574;2022-07-22T02:49:52;102240.31;;;17.31;70.65
61506;BME280;47366;51.916;4.574;2022-07-22T02:52:18;102238.16;;;17.36;70.55
61506;BME280;47366;51.916;4.574;2022-07-22T02:54:43;102230.34;;;17.30;70.46
61506;BME280;47366;51.916;4.574;2022-07-22T02:57:08;102216.19;;;17.24;70.31
61506;BME280;47366;51.916;4.574;2022-07-22T02:59:34;102230.34;;;17.30;70.73
61506;BME280;47366;51.916;4.574;2022-07-22T03:01:59;102220.78;;;17.23;70.16
61506;BME280;47366;51.916;4.574;2022-07-22T03:04:24;102224.19;;;17.27;70.37
61506;BME280;47366;51.916;4.574;2022-07-22T03:06:50;102222.34;;;17.27;69.88
61506;BME280;47366;51.916;4.574;2022-07-22T03:09:15;102229.13;;;17.22;69.76
61506;BME280;47366;51.916;4.574;2022-07-22T03:11:40;102236.16;;;17.26;70.44
61506;BME280;47366;51.916;4.574;2022-07-22T03:14:07;102229.00;;;17.23;70.27
61506;BME280;47366;51.916;4.574;2022-07-22T03:16:32;102228.13;;;17.23;70.25
61506;BME280;47366;51.916;4.574;2022-07-22T03:18:57;102232.06;;;17.18;70.20
61506;BME280;47366;51.916;4.574;2022-07-22T03:21:23;102233.03;;;17.17;70.06
61506;BME280;47366;51.916;4.574;2022-07-22T03:23:48;102243.03;;;17.18;70.13
61506;BME280;47366;51.916;4.574;2022-07-22T03:26:19;102233.47;;;17.11;70.24
61506;BME280;47366;51.916;4.574;2022-07-22T03:28:44;102229.16;;;17.07;70.37
61506;BME280;47366;51.916;4.574;2022-07-22T03:31:10;102225.75;;;17.04;70.40
61506;BME280;47366;51.916;4.574;2022-07-22T03:33:35;102240.22;;;17.06;70.52
61506;BME280;47366;51.916;4.574;2022-07-22T03:36:09;102245.13;;;17.01;70.80
61506;BME280;47366;51.916;4.574;2022-07-22T03:38:35;102248.06;;;16.97;71.34
61506;BME280;47366;51.916;4.574;2022-07-22T03:41:00;102239.38;;;16.91;71.36
61506;BME280;47366;51.916;4.574;2022-07-22T03:43:29;102242.91;;;16.93;71.83
61506;BME280;47366;51.916;4.574;2022-07-22T03:45:55;102239.59;;;16.88;71.75
61506;BME280;47366;51.916;4.574;2022-07-22T03:48:20;102242.13;;;16.91;71.56
61506;BME280;47366;51.916;4.574;2022-07-22T03:50:45;102246.59;;;16.92;71.37
61506;BME280;47366;51.916;4.574;2022-07-22T03:53:11;102243.41;;;16.85;71.82
61506;BME280;47366;51.916;4.574;2022-07-22T03:55:37;102247.88;;;16.86;71.81
61506;BME280;47366;51.916;4.574;2022-07-22T03:58:02;102248.19;;;16.82;71.46
61506;BME280;47366;51.916;4.574;2022-07-22T04:00:28;102249.94;;;16.83;71.85
61506;BME280;47366;51.916;4.574;2022-07-22T04:02:53;102249.75;;;16.86;71.63
61506;BME280;47366;51.916;4.574;2022-07-22T04:05:18;102258.06;;;16.84;71.58
61506;BME280;47366;51.916;4.574;2022-07-22T04:07:43;102249.94;;;16.83;71.89
61506;BME280;47366;51.916;4.574;2022-07-22T04:10:09;102244.66;;;16.80;71.73
61506;BME280;47366;51.916;4.574;2022-07-22T04:12:36;102239.28;;;16.78;71.49
61506;BME280;47366;51.916;4.574;2022-07-22T04:15:03;102246.91;;;16.87;71.48
61506;BME280;47366;51.916;4.574;2022-07-22T04:17:29;102247.88;;;16.86;71.70
61506;BME280;47366;51.916;4.574;2022-07-22T04:19:55;102244.16;;;16.87;71.75
61506;BME280;47366;51.916;4.574;2022-07-22T04:22:20;102240.75;;;16.84;71.76
61506;BME280;47366;51.916;4.574;2022-07-22T04:24:45;102246.03;;;16.87;71.56
61506;BME280;47366;51.916;4.574;2022-07-22T04:27:11;102243.28;;;16.87;72.10
61506;BME280;47366;51.916;4.574;2022-07-22T04:29:36;102247.88;;;16.86;71.98
61506;BME280;47366;51.916;4.574;2022-07-22T04:32:01;102240.47;;;16.88;72.16
61506;BME280;47366;51.916;4.574;2022-07-22T04:34:27;102240.66;;;16.85;71.91
61506;BME280;47366;51.916;4.574;2022-07-22T04:36:52;102228.72;;;16.86;72.03
61506;BME280;47366;51.916;4.574;2022-07-22T04:39:17;102236.72;;;16.89;71.76
61506;BME280;47366;51.916;4.574;2022-07-22T04:41:43;102234.88;;;16.90;71.94
61506;BME280;47366;51.916;4.574;2022-07-22T04:44:08;102239.16;;;16.94;71.93
61506;BME280;47366;51.916;4.574;2022-07-22T04:46:34;102223.91;;;16.90;72.45
61506;BME280;47366;51.916;4.574;2022-07-22T04:48:59;102235.34;;;16.96;71.99
61506;BME280;47366;51.916;4.574;2022-07-22T04:51:24;102229.09;;;16.94;72.10
61506;BME280;47366;51.916;4.574;2022-07-22T04:53:50;102224.31;;;16.98;71.42
61506;BME280;47366;51.916;4.574;2022-07-22T04:56:15;102228.47;;;17.04;72.26
61506;BME280;47366;51.916;4.574;2022-07-22T04:58:41;102223.91;;;17.04;71.77
61506;BME280;47366;51.916;4.574;2022-07-22T05:01:06;102226.66;;;17.04;71.90
61506;BME280;47366;51.916;4.574;2022-07-22T05:03:31;102232.00;;;17.06;72.32
61506;BME280;47366;51.916;4.574;2022-07-22T05:05:56;102232.69;;;17.09;72.15
61506;BME280;47366;51.916;4.574;2022-07-22T05:08:22;102234.34;;;17.12;71.90
61506;BME280;47366;51.916;4.574;2022-07-22T05:10:47;102237.94;;;17.12;72.16
61506;BME280;47366;51.916;4.574;2022-07-22T05:13:13;102235.78;;;17.17;73.20
61506;BME280;47366;51.916;4.574;2022-07-22T05:15:38;102229.97;;;17.22;71.73
61506;BME280;47366;51.916;4.574;2022-07-22T05:18:04;102235.16;;;17.27;71.44
61506;BME280;47366;51.916;4.574;2022-07-22T05:20:29;102229.47;;;17.30;71.71
61506;BME280;47366;51.916;4.574;2022-07-22T05:22:55;102230.16;;;17.33;71.07
61506;BME280;47366;51.916;4.574;2022-07-22T05:25:20;102220.94;;;17.34;71.17
61506;BME280;47366;51.916;4.574;2022-07-22T05:27:53;102225.31;;;17.37;70.89
61506;BME280;47366;51.916;4.574;2022-07-22T05:30:19;102230.38;;;17.43;70.74
61506;BME280;47366;51.916;4.574;2022-07-22T05:32:45;102226.19;;;17.37;70.72
61506;BME280;47366;51.916;4.574;2022-07-22T05:35:10;102224.78;;;17.45;70.29
61506;BME280;47366;51.916;4.574;2022-07-22T05:37:35;102232.59;;;17.51;70.10
61506;BME280;47366;51.916;4.574;2022-07-22T05:40:04;102229.09;;;17.49;70.51
61506;BME280;47366;51.916;4.574;2022-07-22T05:42:30;102228.00;;;17.51;70.57
61506;BME280;47366;51.916;4.574;2022-07-22T05:44:56;102235.91;;;17.56;70.17
61506;BME280;47366;51.916;4.574;2022-07-22T05:47:21;102233.72;;;17.61;70.20
61506;BME280;47366;51.916;4.574;2022-07-22T05:49:46;102213.97;;;17.56;69.74
61506;BME280;47366;51.916;4.574;2022-07-22T05:52:12;102214.53;;;17.61;70.05
61506;BME280;47366;51.916;4.574;2022-07-22T05:54:37;102238.47;;;17.72;69.47
61506;BME280;47366;51.916;4.574;2022-07-22T05:57:02;102223.75;;;17.73;68.94
61506;BME280;47366;51.916;4.574;2022-07-22T05:59:28;102231.56;;;17.79;68.69
61506;BME280;47366;51.916;4.574;2022-07-22T06:01:53;102215.22;;;17.77;68.96
61506;BME280;47366;51.916;4.574;2022-07-22T06:04:19;102222.94;;;17.85;69.06
61506;BME280;47366;51.916;4.574;2022-07-22T06:06:45;102218.72;;;17.79;68.29
61506;BME280;47366;51.916;4.574;2022-07-22T06:09:11;102224.03;;;17.82;68.14
61506;BME280;47366;51.916;4.574;2022-07-22T06:11:36;102222.81;;;17.87;67.86
61506;BME280;47366;51.916;4.574;2022-07-22T06:14:01;102221.88;;;17.88;68.07
61506;BME280;47366;51.916;4.574;2022-07-22T06:16:26;102217.78;;;17.93;68.09
61506;BME280;47366;51.916;4.574;2022-07-22T06:18:52;102216.94;;;17.93;67.75
61506;BME280;47366;51.916;4.574;2022-07-22T06:21:17;102220.84;;;18.01;67.64
61506;BME280;47366;51.916;4.574;2022-07-22T06:23:42;102217.03;;;18.04;67.67
61506;BME280;47366;51.916;4.574;2022-07-22T06:26:08;102221.31;;;18.08;67.65
61506;BME280;47366;51.916;4.574;2022-07-22T06:28:33;102227.13;;;18.16;67.49
61506;BME280;47366;51.916;4.574;2022-07-22T06:30:58;102221.66;;;18.16;67.10
61506;BME280;47366;51.916;4.574;2022-07-22T06:33:24;102221.84;;;18.13;67.23
61506;BME280;47366;51.916;4.574;2022-07-22T06:35:49;102229.97;;;18.15;66.76
61506;BME280;47366;51.916;4.574;2022-07-22T06:38:14;102239.28;;;18.25;67.06
61506;BME280;47366;51.916;4.574;2022-07-22T06:40:40;102234.91;;;18.22;67.08
61506;BME280;47366;51.916;4.574;2022-07-22T06:43:05;102243.69;;;18.28;66.83
61506;BME280;47366;51.916;4.574;2022-07-22T06:45:31;102241.94;;;18.27;66.27
61506;BME280;47366;51.916;4.574;2022-07-22T06:47:57;102229.19;;;18.25;66.55
61506;BME280;47366;51.916;4.574;2022-07-22T06:50:23;102233.47;;;18.30;66.19
61506;BME280;47366;51.916;4.574;2022-07-22T06:52:48;102239.97;;;18.29;66.32
61506;BME280;47366;51.916;4.574;2022-07-22T06:55:14;102238.09;;;18.29;66.30
61506;BME280;47366;51.916;4.574;2022-07-22T06:57:39;102236.22;;;18.30;66.49
61506;BME280;47366;51.916;4.574;2022-07-22T07:00:06;102239.63;;;18.33;66.54
61506;BME280;47366;51.916;4.574;2022-07-22T07:02:35;102243.16;;;18.35;65.81
61506;BME280;47366;51.916;4.574;2022-07-22T07:05:00;102230.72;;;18.30;66.32
61506;BME280;47366;51.916;4.574;2022-07-22T07:07:26;102240.75;;;18.31;65.86
61506;BME280;47366;51.916;4.574;2022-07-22T07:09:52;102242.06;;;18.38;65.45
61506;BME280;47366;51.916;4.574;2022-07-22T07:12:18;102231.06;;;18.38;65.76
61506;BME280;47366;51.916;4.574;2022-07-22T07:14:43;102231.06;;;18.38;65.84
61506;BME280;47366;51.916;4.574;2022-07-22T07:17:09;102241.59;;;18.44;65.48
61506;BME280;47366;51.916;4.574;2022-07-22T07:19:34;102235.13;;;18.45;65.21
61506;BME280;47366;51.916;4.574;2022-07-22T07:21:59;102239.91;;;18.54;64.83
61506;BME280;47366;51.916;4.574;2022-07-22T07:24:25;102228.06;;;18.66;65.17
61506;BME280;47366;51.916;4.574;2022-07-22T07:26:50;102237.06;;;18.81;64.69
61506;BME280;47366;51.916;4.574;2022-07-22T07:29:16;102237.34;;;18.89;64.27
61506;BME280;47366;51.916;4.574;2022-07-22T07:31:41;102223.97;;;18.85;64.30
61506;BME280;47366;51.916;4.574;2022-07-22T07:34:07;102220.78;;;18.91;64.45
61506;BME280;47366;51.916;4.574;2022-07-22T07:36:32;102228.34;;;18.87;64.08
61506;BME280;47366;51.916;4.574;2022-07-22T07:38:57;102229.09;;;18.89;64.50
61506;BME280;47366;51.916;4.574;2022-07-22T07:41:22;102225.59;;;18.87;64.72
61506;BME280;47366;51.916;4.574;2022-07-22T07:43:48;102223.63;;;18.89;64.80
61506;BME280;47366;51.916;4.574;2022-07-22T07:46:13;102228.00;;;18.92;64.81
61506;BME280;47366;51.916;4.574;2022-07-22T07:48:39;102216.16;;;18.92;64.53
61506;BME280;47366;51.916;4.574;2022-07-22T07:51:04;102216.81;;;18.95;63.96
61506;BME280;47366;51.916;4.574;2022-07-22T07:53:30;102216.34;;;19.01;64.04
61506;BME280;47366;51.916;4.574;2022-07-22T07:55:55;102214.25;;;19.05;64.09
61506;BME280;47366;51.916;4.574;2022-07-22T07:58:21;102216.75;;;19.08;63.21
61506;BME280;47366;51.916;4.574;2022-07-22T08:00:46;102216.28;;;19.14;63.74
61506;BME280;47366;51.916;4.574;2022-07-22T08:03:12;102210.66;;;19.16;63.39
61506;BME280;47366;51.916;4.574;2022-07-22T08:05:38;102211.44;;;19.18;63.06
61506;BME280;47366;51.916;4.574;2022-07-22T08:08:05;102227.03;;;19.17;63.46
61506;BME280;47366;51.916;4.574;2022-07-22T08:10:31;102219.16;;;19.13;63.15
61506;BME280;47366;51.916;4.574;2022-07-22T08:12:57;102207.06;;;19.15;63.29
61506;BME280;47366;51.916;4.574;2022-07-22T08:15:24;102213.31;;;19.17;63.69
61506;BME280;47366;51.916;4.574;2022-07-22T08:17:49;102206.69;;;19.20;63.56
61506;BME280;47366;51.916;4.574;2022-07-22T08:20:15;102207.31;;;19.23;63.14
61506;BME280;47366;51.916;4.574;2022-07-22T08:22:40;102201.19;;;19.20;63.63
61506;BME280;47366;51.916;4.574;2022-07-22T08:25:05;102209.19;;;19.23;63.42
61506;BME280;47366;51.916;4.574;2022-07-22T08:27:31;102210.63;;;19.28;63.26
61506;BME280;47366;51.916;4.574;2022-07-22T08:29:56;102205.66;;;19.34;62.55
61506;BME280;47366;51.916;4.574;2022-07-22T08:32:22;102201.25;;;19.31;62.28
61506;BME280;47366;51.916;4.574;2022-07-22T08:34:48;102201.44;;;19.41;62.49
61506;BME280;47366;51.916;4.574;2022-07-22T08:37:13;102204.59;;;19.47;62.82
61506;BME280;47366;51.916;4.574;2022-07-22T08:39:38;102196.56;;;19.44;62.52
61506;BME280;47366;51.916;4.574;2022-07-22T08:42:04;102206.31;;;19.48;61.93
61506;BME280;47366;51.916;4.574;2022-07-22T08:44:30;102190.44;;;19.41;62.51
61506;BME280;47366;51.916;4.574;2022-07-22T08:46:57;102199.81;;;19.49;62.92
61506;BME280;47366;51.916;4.574;2022-07-22T08:49:22;102196.84;;;19.52;62.88
61506;BME280;47366;51.916;4.574;2022-07-22T08:51:48;102189.72;;;19.50;62.57
61506;BME280;47366;51.916;4.574;2022-07-22T08:54:13;102189.31;;;19.43;62.68
61506;BME280;47366;51.916;4.574;2022-07-22T08:56:39;102201.69;;;19.49;62.74
61506;BME280;47366;51.916;4.574;2022-07-22T08:59:04;102203.72;;;19.58;62.23
61506;BME280;47366;51.916;4.574;2022-07-22T09:01:30;102196.59;;;19.56;61.91
61506;BME280;47366;51.916;4.574;2022-07-22T09:03:56;102204.13;;;19.65;62.02
61506;BME280;47366;51.916;4.574;2022-07-22T09:06:27;102200.63;;;19.63;61.73
61506;BME280;47366;51.916;4.574;2022-07-22T09:09:04;102191.69;;;19.72;61.71
61506;BME280;47366;51.916;4.574;2022-07-22T09:11:30;102190.97;;;19.81;61.07
61506;BME280;47366;51.916;4.574;2022-07-22T09:13:58;102192.84;;;19.92;60.81
61506;BME280;47366;51.916;4.574;2022-07-22T09:16:46;102199.13;;;20.05;59.94
61506;BME280;47366;51.916;4.574;2022-07-22T09:19:12;102198.00;;;20.08;60.60
61506;BME280;47366;51.916;4.574;2022-07-22T09:21:42;102195.00;;;20.11;59.96
61506;BME280;47366;51.916;4.574;2022-07-22T09:24:25;102182.47;;;20.07;60.24
61506;BME280;47366;51.916;4.574;2022-07-22T09:26:54;102199.75;;;20.09;60.33
61506;BME280;47366;51.916;4.574;2022-07-22T09:29:20;102194.59;;;20.04;60.70
61506;BME280;47366;51.916;4.574;2022-07-22T09:31:50;102194.47;;;19.94;60.31
61506;BME280;47366;51.916;4.574;2022-07-22T09:34:29;102190.59;;;19.86;60.08
61506;BME280;47366;51.916;4.574;2022-07-22T09:36:57;102182.31;;;19.75;60.90
61506;BME280;47366;51.916;4.574;2022-07-22T09:39:31;102206.44;;;19.82;60.31
61506;BME280;47366;51.916;4.574;2022-07-22T09:42:05;102196.56;;;19.80;60.34
61506;BME280;47366;51.916;4.574;2022-07-22T09:44:31;102196.56;;;19.80;61.13
61506;BME280;47366;51.916;4.574;2022-07-22T09:46:56;102192.59;;;19.84;60.82
61506;BME280;47366;51.916;4.574;2022-07-22T09:49:35;102205.25;;;19.98;60.11
61506;BME280;47366;51.916;4.574;2022-07-22T09:52:02;102215.03;;;20.24;60.00
61506;BME280;47366;51.916;4.574;2022-07-22T09:54:29;102197.28;;;20.62;58.65
61506;BME280;47366;51.916;4.574;2022-07-22T09:56:55;102202.06;;;21.15;57.85
61506;BME280;47366;51.916;4.574;2022-07-22T09:59:21;102188.16;;;21.49;57.10
61506;BME280;47366;51.916;4.574;2022-07-22T10:01:47;102201.16;;;21.79;56.19
61506;BME280;47366;51.916;4.574;2022-07-22T10:04:14;102199.91;;;22.14;56.32
61506;BME280;47366;51.916;4.574;2022-07-22T10:06:41;102197.91;;;22.46;54.79
61506;BME280;47366;51.916;4.574;2022-07-22T10:09:07;102188.59;;;22.47;53.92
61506;BME280;47366;51.916;4.574;2022-07-22T10:11:35;102191.94;;;22.41;53.50
61506;BME280;47366;51.916;4.574;2022-07-22T10:14:02;102195.25;;;22.14;54.89
61506;BME280;47366;51.916;4.574;2022-07-22T10:16:28;102192.66;;;22.13;55.72
61506;BME280;47366;51.916;4.574;2022-07-22T10:18:53;102201.38;;;22.18;54.88
61506;BME280;47366;51.916;4.574;2022-07-22T10:21:30;102197.88;;;22.16;53.99
61506;BME280;47366;51.916;4.574;2022-07-22T10:24:16;102195.19;;;22.25;54.51
61506;BME280;47366;51.916;4.574;2022-07-22T10:26:54;102197.00;;;22.15;53.29
61506;BME280;47366;51.916;4.574;2022-07-22T10:29:31;102210.34;;;22.10;54.75
61506;BME280;47366;51.916;4.574;2022-07-22T10:43:18;102179.28;;;22.89;53.46
61506;BME280;47366;51.916;4.574;2022-07-22T10:46:00;102177.00;;;23.04;52.45
61506;BME280;47366;51.916;4.574;2022-07-22T10:51:14;102189.47;;;22.79;51.73
61506;BME280;47366;51.916;4.574;2022-07-22T10:56:26;102184.66;;;22.40;51.97
61506;BME280;47366;51.916;4.574;2022-07-22T10:58:57;102157.59;;;22.24;53.84
61506;BME280;47366;51.916;4.574;2022-07-22T11:01:29;102145.53;;;22.04;53.12
61506;BME280;47366;51.916;4.574;2022-07-22T11:03:56;102153.28;;;21.90;54.62
61506;BME280;47366;51.916;4.574;2022-07-22T11:06:31;102156.56;;;22.04;52.39
61506;BME280;47366;51.916;4.574;2022-07-22T11:08:59;102147.38;;;22.56;52.02
61506;BME280;47366;51.916;4.574;2022-07-22T11:11:36;102150.06;;;22.96;50.37
61506;BME280;47366;51.916;4.574;2022-07-22T11:14:03;102152.88;;;23.25;50.59
61506;BME280;47366;51.916;4.574;2022-07-22T11:16:29;102162.72;;;23.57;50.00
61506;BME280;47366;51.916;4.574;2022-07-22T11:18:57;102159.25;;;23.36;50.47
61506;BME280;47366;51.916;4.574;2022-07-22T11:21:26;102158.81;;;23.40;50.21
61506;BME280;47366;51.916;4.574;2022-07-22T11:23:55;102158.81;;;23.30;50.82
61506;BME280;47366;51.916;4.574;2022-07-22T11:29:06;102147.34;;;23.25;50.84
61506;BME280;47366;51.916;4.574;2022-07-22T11:31:32;102140.66;;;23.08;51.35
61506;BME280;47366;51.916;4.574;2022-07-22T11:34:12;102144.28;;;22.99;51.11
61506;BME280;47366;51.916;4.574;2022-07-22T11:36:40;102129.69;;;22.87;50.70
61506;BME280;47366;51.916;4.574;2022-07-22T11:39:07;102135.38;;;22.86;52.28
61506;BME280;47366;51.916;4.574;2022-07-22T11:41:33;102127.94;;;22.86;51.15
61506;BME280;47366;51.916;4.574;2022-07-22T11:43:58;102118.94;;;22.94;51.02
61506;BME280;47366;51.916;4.574;2022-07-22T11:46:24;102116.78;;;22.98;51.27
61506;BME280;47366;51.916;4.574;2022-07-22T11:48:51;102115.78;;;22.99;51.05
61506;BME280;47366;51.916;4.574;2022-07-22T11:51:17;102113.88;;;23.09;50.98
61506;BME280;47366;51.916;4.574;2022-07-22T11:53:42;102111.84;;;23.01;50.91
61506;BME280;47366;51.916;4.574;2022-07-22T11:56:09;102113.75;;;23.01;51.21
61506;BME280;47366;51.916;4.574;2022-07-22T11:58:45;102123.03;;;23.00;50.76
61506;BME280;47366;51.916;4.574;2022-07-22T12:01:13;102101.66;;;23.02;51.07
61506;BME280;47366;51.916;4.574;2022-07-22T12:03:44;102098.75;;;23.03;50.08
61506;BME280;47366;51.916;4.574;2022-07-22T12:06:11;102112.53;;;22.94;51.04
61506;BME280;47366;51.916;4.574;2022-07-22T12:08:43;102106.72;;;22.87;51.63
61506;BME280;47366;51.916;4.574;2022-07-22T12:11:10;102109.59;;;22.85;51.14
61506;BME280;47366;51.916;4.574;2022-07-22T12:13:44;102110.50;;;22.86;50.97
61506;BME280;47366;51.916;4.574;2022-07-22T12:16:26;102117.66;;;22.98;49.64
61506;BME280;47366;51.916;4.574;2022-07-22T12:19:02;102112.44;;;23.05;50.76
61506;BME280;47366;51.916;4.574;2022-07-22T12:21:33;102102.06;;;23.17;50.54
61506;BME280;47366;51.916;4.574;2022-07-22T12:24:04;102088.97;;;23.28;49.46
61506;BME280;47366;51.916;4.574;2022-07-22T12:26:37;102115.59;;;23.49;48.84
61506;BME280;47366;51.916;4.574;2022-07-22T12:29:14;102104.53;;;23.49;49.46
61506;BME280;47366;51.916;4.574;2022-07-22T12:31:47;102109.34;;;23.37;49.10
61506;BME280;47366;51.916;4.574;2022-07-22T12:34:13;102091.59;;;23.40;48.61
61506;BME280;47366;51.916;4.574;2022-07-22T12:36:43;102093.31;;;23.50;50.20
61506;BME280;47366;51.916;4.574;2022-07-22T12:39:17;102100.97;;;23.66;47.18
61506;BME280;47366;51.916;4.574;2022-07-22T12:41:54;102099.25;;;23.65;47.92
61506;BME280;47366;51.916;4.574;2022-07-22T12:44:22;102096.63;;;23.73;48.31
61506;BME280;47366;51.916;4.574;2022-07-22T12:46:50;102097.22;;;23.67;48.93
61506;BME280;47366;51.916;4.574;2022-07-22T12:49:19;102096.63;;;23.73;49.75
61506;BME280;47366;51.916;4.574;2022-07-22T12:52:07;102102.75;;;23.67;48.95
61506;BME280;47366;51.916;4.574;2022-07-22T12:54:34;102103.34;;;23.51;49.34
61506;BME280;47366;51.916;4.574;2022-07-22T12:57:00;102089.25;;;23.35;49.45
61506;BME280;47366;51.916;4.574;2022-07-22T12:59:26;102098.16;;;23.39;49.29
61506;BME280;47366;51.916;4.574;2022-07-22T13:01:51;102091.88;;;23.37;49.88
61506;BME280;47366;51.916;4.574;2022-07-22T13:04:16;102089.69;;;23.30;49.55
61506;BME280;47366;51.916;4.574;2022-07-22T13:06:42;102098.19;;;23.19;49.95
61506;BME280;47366;51.916;4.574;2022-07-22T13:09:07;102100.94;;;23.19;49.92